createdAt,value
2023-04-16T00:01:01.267Z,6.60
2023-04-16T00:03:28.041Z,6.90
2023-04-16T00:05:54.874Z,7.10
2023-04-16T00:08:21.502Z,7.20
2023-04-16T00:10:48.089Z,7.10
2023-04-16T00:13:14.665Z,7.30
2023-04-16T00:15:41.232Z,6.90
2023-04-16T00:18:07.841Z,7.10
2023-04-16T00:20:34.446Z,7.30
2023-04-16T00:23:01.000Z,6.80
2023-04-16T00:25:27.598Z,6.50
2023-04-16T00:27:54.217Z,6.40
2023-04-16T00:30:20.898Z,6.30
2023-04-16T00:32:47.517Z,6.60
2023-04-16T00:35:14.096Z,6.90
2023-04-16T00:37:40.687Z,7.00
2023-04-16T00:40:07.278Z,6.90
2023-04-16T00:42:33.871Z,6.30
2023-04-16T00:45:00.471Z,5.80
2023-04-16T00:47:27.074Z,6.10
2023-04-16T00:49:53.658Z,6.50
2023-04-16T00:52:20.248Z,6.60
2023-04-16T00:54:46.789Z,6.70
2023-04-16T00:57:13.377Z,6.40
2023-04-16T00:59:39.963Z,6.60
2023-04-16T01:02:06.810Z,6.80
2023-04-16T01:04:33.536Z,7.00
2023-04-16T01:07:00.250Z,7.00
2023-04-16T01:09:26.855Z,6.90
2023-04-16T01:11:53.402Z,7.00
2023-04-16T01:14:20.025Z,6.90
2023-04-16T01:16:46.626Z,6.90
2023-04-16T01:19:13.182Z,7.00
2023-04-16T01:21:39.776Z,7.10
2023-04-16T01:24:06.769Z,7.20
2023-04-16T01:26:33.470Z,7.20
2023-04-16T01:29:00.140Z,7.20
2023-04-16T01:31:26.799Z,7.20
2023-04-16T01:33:53.418Z,7.30
2023-04-16T01:36:20.000Z,7.00
2023-04-16T01:38:47.630Z,7.10
2023-04-16T01:41:14.199Z,7.00
2023-04-16T01:43:41.608Z,7.10
2023-04-16T01:46:08.234Z,7.20
2023-04-16T01:48:34.847Z,7.20
2023-04-16T01:51:01.441Z,7.10
2023-04-16T01:53:27.995Z,7.10
2023-04-16T01:55:54.584Z,6.60
2023-04-16T01:58:21.132Z,6.50
2023-04-16T02:00:47.782Z,6.70
2023-04-16T02:03:14.471Z,6.80
2023-04-16T02:05:41.165Z,6.80
2023-04-16T02:08:07.793Z,6.80
2023-04-16T02:10:34.483Z,6.90
2023-04-16T02:13:01.104Z,7.00
2023-04-16T02:15:27.769Z,7.10
2023-04-16T02:17:54.361Z,7.10
2023-04-16T02:20:20.988Z,7.20
2023-04-16T02:22:47.585Z,6.80
2023-04-16T02:25:14.204Z,6.80
2023-04-16T02:27:41.617Z,6.80
2023-04-16T02:30:08.205Z,6.60
2023-04-16T02:32:34.823Z,6.00
2023-04-16T02:35:01.484Z,5.90
2023-04-16T02:37:28.143Z,5.80
2023-04-16T02:39:54.703Z,6.10
2023-04-16T02:42:21.480Z,6.20
2023-04-16T02:44:48.083Z,6.10
2023-04-16T02:47:14.710Z,6.40
2023-04-16T02:49:41.305Z,6.30
2023-04-16T02:52:07.942Z,6.50
2023-04-16T02:54:34.529Z,6.20
2023-04-16T02:57:01.095Z,6.20
2023-04-16T02:59:27.780Z,6.40
2023-04-16T03:01:54.432Z,6.60
2023-04-16T03:04:21.119Z,6.30
2023-04-16T03:06:47.703Z,6.10
2023-04-16T03:09:14.276Z,6.20
2023-04-16T03:11:40.840Z,6.40
2023-04-16T03:14:07.449Z,6.40
2023-04-16T03:16:34.005Z,5.90
2023-04-16T03:19:00.596Z,6.10
2023-04-16T03:21:27.150Z,6.30
2023-04-16T03:23:53.723Z,6.20
2023-04-16T03:26:20.450Z,6.00
2023-04-16T03:28:47.080Z,6.00
2023-04-16T03:31:13.712Z,6.00
2023-04-16T03:33:40.337Z,6.30
2023-04-16T03:36:07.015Z,6.40
2023-04-16T03:38:33.603Z,6.60
2023-04-16T03:41:00.199Z,6.70
2023-04-16T03:43:26.803Z,6.70
2023-04-16T03:45:53.388Z,6.70
2023-04-16T03:48:19.966Z,6.60
2023-04-16T03:50:46.949Z,6.50
2023-04-16T03:53:13.572Z,6.40
2023-04-16T03:55:40.151Z,6.40
2023-04-16T03:58:06.735Z,6.50
2023-04-16T04:00:33.344Z,6.60
2023-04-16T04:03:00.102Z,6.70
2023-04-16T04:05:26.916Z,6.70
2023-04-16T04:07:53.490Z,6.70
2023-04-16T04:10:20.074Z,6.80
2023-04-16T04:12:46.662Z,6.80
2023-04-16T04:15:13.232Z,6.90
2023-04-16T04:17:39.931Z,6.80
2023-04-16T04:20:06.631Z,6.70
2023-04-16T04:22:33.201Z,6.70
2023-04-16T04:24:59.758Z,6.70
2023-04-16T04:27:26.363Z,6.60
2023-04-16T04:29:52.983Z,6.60
2023-04-16T04:32:19.628Z,6.60
2023-04-16T04:34:46.210Z,6.70
2023-04-16T04:37:12.806Z,6.70
2023-04-16T04:39:39.769Z,6.50
2023-04-16T04:42:06.385Z,6.50
2023-04-16T04:44:33.018Z,6.70
2023-04-16T04:46:59.642Z,6.80
2023-04-16T04:49:26.260Z,6.60
2023-04-16T04:51:52.880Z,6.70
2023-04-16T04:54:19.478Z,6.80
2023-04-16T04:56:46.650Z,6.90
2023-04-16T04:59:13.213Z,6.90
2023-04-16T05:01:39.827Z,7.00
2023-04-16T05:04:06.468Z,6.60
2023-04-16T05:06:33.085Z,7.00
2023-04-16T05:08:59.686Z,7.10
2023-04-16T05:11:26.272Z,7.20
2023-04-16T05:13:52.935Z,7.30
2023-04-16T05:16:19.527Z,7.30
2023-04-16T05:18:46.118Z,7.50
2023-04-16T05:21:12.702Z,7.40
2023-04-16T05:23:39.276Z,7.30
2023-04-16T05:26:05.850Z,7.40
2023-04-16T05:28:32.570Z,7.40
2023-04-16T05:30:59.248Z,7.50
2023-04-16T05:33:25.881Z,7.50
2023-04-16T05:35:52.459Z,7.50
2023-04-16T05:38:19.045Z,7.50
2023-04-16T05:40:45.812Z,7.50
2023-04-16T05:43:12.407Z,7.70
2023-04-16T05:45:38.976Z,7.40
2023-04-16T05:48:05.562Z,7.30
2023-04-16T05:50:32.419Z,7.50
2023-04-16T05:52:58.965Z,7.70
2023-04-16T05:55:25.546Z,7.80
2023-04-16T05:57:52.127Z,7.90
2023-04-16T06:00:18.728Z,8.10
2023-04-16T06:02:45.427Z,8.40
2023-04-16T06:05:12.132Z,8.20
2023-04-16T06:07:38.754Z,8.40
2023-04-16T06:10:05.395Z,8.50
2023-04-16T06:12:34.023Z,8.60
2023-04-16T06:15:00.608Z,8.70
2023-04-16T06:17:27.180Z,8.80
2023-04-16T06:19:54.134Z,8.80
2023-04-16T06:22:20.892Z,8.70
2023-04-16T06:24:47.483Z,8.80
2023-04-16T06:27:15.086Z,9.10
2023-04-16T06:29:42.031Z,8.80
2023-04-16T06:32:08.953Z,9.10
2023-04-16T06:34:35.631Z,8.90
2023-04-16T06:37:02.193Z,8.90
2023-04-16T06:39:28.772Z,8.90
2023-04-16T06:41:55.363Z,9.10
2023-04-16T06:44:22.091Z,9.20
2023-04-16T06:46:49.169Z,9.30
2023-04-16T06:49:15.770Z,9.40
2023-04-16T06:51:42.396Z,9.60
2023-04-16T06:54:09.004Z,9.80
2023-04-16T06:56:35.587Z,9.90
2023-04-16T06:59:02.173Z,9.90
2023-04-16T07:01:28.841Z,9.20
2023-04-16T07:03:55.638Z,9.40
2023-04-16T07:06:22.388Z,9.50
2023-04-16T07:08:48.959Z,9.60
2023-04-16T07:11:15.551Z,9.70
2023-04-16T07:13:42.145Z,9.90
2023-04-16T07:16:08.806Z,10.10
2023-04-16T07:18:35.462Z,10.40
2023-04-16T07:21:02.045Z,10.60
2023-04-16T07:23:28.620Z,10.80
2023-04-16T07:25:55.213Z,11.00
2023-04-16T07:28:21.858Z,11.00
2023-04-16T07:30:48.447Z,11.00
2023-04-16T07:33:15.006Z,11.10
2023-04-16T07:35:41.645Z,10.80
2023-04-16T07:38:08.218Z,11.00
2023-04-16T07:40:34.820Z,11.10
2023-04-16T07:43:03.885Z,10.70
2023-04-16T07:45:30.450Z,10.70
2023-04-16T07:47:57.154Z,10.90
2023-04-16T07:50:23.832Z,11.30
2023-04-16T07:52:50.493Z,11.10
2023-04-16T07:55:17.049Z,11.30
2023-04-16T07:57:43.850Z,11.10
2023-04-16T08:00:10.471Z,11.40
2023-04-16T08:02:37.547Z,11.00
2023-04-16T08:05:04.356Z,10.90
2023-04-16T08:07:32.718Z,10.60
2023-04-16T08:10:00.666Z,11.20
2023-04-16T08:12:27.303Z,11.50
2023-04-16T08:14:53.930Z,11.90
2023-04-16T08:17:20.510Z,11.40
2023-04-16T08:19:47.117Z,11.20
2023-04-16T08:22:13.784Z,11.30
2023-04-16T08:24:40.366Z,11.00
2023-04-16T08:27:17.684Z,11.20
2023-04-16T08:29:45.499Z,11.10
2023-04-16T08:32:12.104Z,11.00
2023-04-16T08:34:38.932Z,11.00
2023-04-16T08:37:05.508Z,11.10
2023-04-16T08:39:32.121Z,11.10
2023-04-16T08:41:58.673Z,11.10
2023-04-16T08:44:25.237Z,11.40
2023-04-16T08:46:51.855Z,11.30
2023-04-16T08:49:18.442Z,11.40
2023-04-16T08:51:45.025Z,11.20
2023-04-16T08:54:11.611Z,11.40
2023-04-16T08:56:38.221Z,11.70
2023-04-16T08:59:04.813Z,11.80
2023-04-16T09:01:31.442Z,11.80
2023-04-16T09:03:58.193Z,12.00
2023-04-16T09:06:24.885Z,12.40
2023-04-16T09:08:51.506Z,12.10
2023-04-16T09:11:18.088Z,12.00
2023-04-16T09:13:44.982Z,11.70
2023-04-16T09:16:11.699Z,12.00
2023-04-16T09:18:38.380Z,12.20
2023-04-16T09:21:04.983Z,12.80
2023-04-16T09:23:31.549Z,13.00
2023-04-16T09:25:58.117Z,12.10
2023-04-16T09:28:24.699Z,11.80
2023-04-16T09:30:51.289Z,11.90
2023-04-16T09:33:17.916Z,12.50
2023-04-16T09:35:44.496Z,12.40
2023-04-16T09:38:11.104Z,12.30
2023-04-16T09:40:37.950Z,12.80
2023-04-16T09:43:04.523Z,12.80
2023-04-16T09:45:31.154Z,13.00
2023-04-16T09:47:57.805Z,13.50
2023-04-16T09:50:24.413Z,13.30
2023-04-16T09:52:51.134Z,12.90
2023-04-16T09:55:17.717Z,13.50
2023-04-16T09:57:44.316Z,13.40
2023-04-16T10:00:11.317Z,13.50
2023-04-16T10:02:38.325Z,13.70
2023-04-16T10:05:04.992Z,13.50
2023-04-16T10:07:31.636Z,13.40
2023-04-16T10:09:58.191Z,13.90
2023-04-16T10:12:24.827Z,14.40
2023-04-16T10:14:51.422Z,14.40
2023-04-16T10:17:18.070Z,14.60
2023-04-16T10:19:44.630Z,14.30
2023-04-16T10:22:11.359Z,14.20
2023-04-16T10:24:37.992Z,14.00
2023-04-16T10:27:04.552Z,14.10
2023-04-16T10:29:31.188Z,13.90
2023-04-16T10:31:57.804Z,14.40
2023-04-16T10:34:24.368Z,14.00
2023-04-16T10:36:50.981Z,14.50
2023-04-16T10:39:17.631Z,14.50
2023-04-16T10:41:44.397Z,14.70
2023-04-16T10:44:11.101Z,14.90
2023-04-16T10:46:37.929Z,15.40
2023-04-16T10:49:04.600Z,15.70
2023-04-16T10:51:31.183Z,16.30
2023-04-16T10:53:57.805Z,15.10
2023-04-16T10:56:24.406Z,14.70
2023-04-16T10:58:51.230Z,14.60
2023-04-16T11:01:19.046Z,14.10
2023-04-16T11:03:45.834Z,14.50
2023-04-16T11:06:12.561Z,14.70
2023-04-16T11:08:53.380Z,14.90
2023-04-16T11:11:21.022Z,14.50
2023-04-16T11:13:47.746Z,14.60
2023-04-16T11:16:14.403Z,14.50
2023-04-16T11:18:41.570Z,14.70
2023-04-16T11:21:17.780Z,14.60
2023-04-16T11:23:44.410Z,14.90
2023-04-16T11:26:10.977Z,15.10
2023-04-16T11:28:37.596Z,15.20
2023-04-16T11:31:04.238Z,15.70
2023-04-16T11:33:30.872Z,15.70
2023-04-16T11:35:57.437Z,15.40
2023-04-16T11:38:24.118Z,15.90
2023-04-16T11:40:50.706Z,15.30
2023-04-16T11:43:17.295Z,14.70
2023-04-16T11:45:43.945Z,14.20
2023-04-16T11:48:11.259Z,14.40
2023-04-16T11:50:37.953Z,14.80
2023-04-16T11:53:04.566Z,15.60
2023-04-16T11:55:31.155Z,15.90
2023-04-16T11:57:57.778Z,15.90
2023-04-16T12:00:25.091Z,15.90
2023-04-16T12:02:51.980Z,15.80
2023-04-16T12:05:18.799Z,15.90
2023-04-16T12:07:45.410Z,14.90
2023-04-16T12:10:12.100Z,15.40
2023-04-16T12:12:38.735Z,15.50
2023-04-16T12:15:05.460Z,15.40
2023-04-16T12:17:32.159Z,15.40
2023-04-16T12:19:58.807Z,15.20
2023-04-16T12:22:25.398Z,14.90
2023-04-16T12:24:51.970Z,15.30
2023-04-16T12:27:18.536Z,15.60
2023-04-16T12:29:45.123Z,15.90
2023-04-16T12:32:11.764Z,15.70
2023-04-16T12:34:48.761Z,15.80
2023-04-16T12:37:16.189Z,16.00
2023-04-16T12:39:43.102Z,16.30
2023-04-16T12:42:09.769Z,16.60
2023-04-16T12:44:36.426Z,16.70
2023-04-16T12:47:03.013Z,16.60
2023-04-16T12:49:30.637Z,16.50
2023-04-16T12:51:57.243Z,16.30
2023-04-16T12:54:23.840Z,15.90
2023-04-16T12:56:50.423Z,16.00
2023-04-16T12:59:17.015Z,16.20
2023-04-16T13:01:43.692Z,16.20
2023-04-16T13:04:10.555Z,16.50
2023-04-16T13:06:37.238Z,16.00
2023-04-16T13:09:03.816Z,15.80
2023-04-16T13:11:30.513Z,15.70
2023-04-16T13:13:57.323Z,15.50
2023-04-16T13:16:24.006Z,15.60
2023-04-16T13:18:50.593Z,15.60
2023-04-16T13:21:17.182Z,16.00
2023-04-16T13:23:43.749Z,15.30
2023-04-16T13:26:12.680Z,14.70
2023-04-16T13:28:39.273Z,14.50
2023-04-16T13:31:06.150Z,14.80
2023-04-16T13:33:32.768Z,14.60
2023-04-16T13:35:59.354Z,14.80
2023-04-16T13:38:25.949Z,14.60
2023-04-16T13:40:52.510Z,14.70
2023-04-16T13:43:19.140Z,14.80
2023-04-16T13:45:45.716Z,14.70
2023-04-16T13:48:12.326Z,14.80
2023-04-16T13:50:38.957Z,15.00
2023-04-16T13:53:05.609Z,14.90
2023-04-16T13:55:32.165Z,14.70
2023-04-16T13:57:58.894Z,14.70
2023-04-16T14:00:25.448Z,15.10
2023-04-16T14:02:52.334Z,15.10
2023-04-16T14:05:19.035Z,15.10
2023-04-16T14:07:45.590Z,15.20
2023-04-16T14:10:12.202Z,15.40
2023-04-16T14:12:39.132Z,15.30
2023-04-16T14:15:05.851Z,16.00
2023-04-16T14:17:32.529Z,15.60
2023-04-16T14:19:59.186Z,15.50
2023-04-16T14:22:25.778Z,15.50
2023-04-16T14:24:52.481Z,15.60
2023-04-16T14:27:19.082Z,14.70
2023-04-16T14:29:45.736Z,14.30
2023-04-16T14:32:12.401Z,14.60
2023-04-16T14:34:39.024Z,15.00
2023-04-16T14:37:05.623Z,15.40
2023-04-16T14:39:32.290Z,15.60
2023-04-16T14:41:58.915Z,16.20
2023-04-16T14:44:25.525Z,16.60
2023-04-16T14:46:52.118Z,16.10
2023-04-16T14:49:18.832Z,16.10
2023-04-16T14:51:45.774Z,16.10
2023-04-16T14:54:12.409Z,15.30
2023-04-16T14:56:38.992Z,15.20
2023-04-16T14:59:05.612Z,14.90
2023-04-16T15:01:32.346Z,14.90
2023-04-16T15:04:01.373Z,14.30
2023-04-16T15:06:28.716Z,14.30
2023-04-16T15:08:55.297Z,14.10
2023-04-16T15:11:21.994Z,14.50
2023-04-16T15:13:48.667Z,14.70
2023-04-16T15:16:15.272Z,14.70
2023-04-16T15:18:41.870Z,14.80
2023-04-16T15:21:09.520Z,14.80
2023-04-16T15:23:37.784Z,14.70
2023-04-16T15:26:05.431Z,14.40
2023-04-16T15:28:32.025Z,14.20
2023-04-16T15:30:58.661Z,14.40
2023-04-16T15:33:25.286Z,14.60
2023-04-16T15:35:51.919Z,14.30
2023-04-16T15:38:18.698Z,14.30
2023-04-16T15:40:45.289Z,14.20
2023-04-16T15:43:11.867Z,14.20
2023-04-16T15:45:38.466Z,14.40
2023-04-16T15:48:05.087Z,14.10
2023-04-16T15:50:31.668Z,14.00
2023-04-16T15:52:58.286Z,14.20
2023-04-16T15:55:24.891Z,14.30
2023-04-16T15:57:51.508Z,14.50
2023-04-16T16:00:18.142Z,14.30
2023-04-16T16:02:45.222Z,14.30
2023-04-16T16:05:12.320Z,14.40
2023-04-16T16:07:39.134Z,14.40
2023-04-16T16:10:05.738Z,14.30
2023-04-16T16:12:32.309Z,14.40
2023-04-16T16:14:59.131Z,14.40
2023-04-16T16:17:26.142Z,14.40
2023-04-16T16:19:52.841Z,14.40
2023-04-16T16:22:19.417Z,14.50
2023-04-16T16:24:46.005Z,14.70
2023-04-16T16:29:56.753Z,14.50
2023-04-16T16:32:23.359Z,14.80
2023-04-16T16:34:49.982Z,14.90
2023-04-16T16:37:16.655Z,14.80
2023-04-16T16:39:43.284Z,14.50
2023-04-16T16:42:09.847Z,14.60
2023-04-16T16:44:36.475Z,14.60
2023-04-16T16:47:03.082Z,14.60
2023-04-16T16:49:30.146Z,14.60
2023-04-16T16:51:56.748Z,14.00
2023-04-16T16:54:23.441Z,13.70
2023-04-16T16:56:50.037Z,13.80
2023-04-16T16:59:16.604Z,13.90
2023-04-16T17:01:43.240Z,13.70
2023-04-16T17:04:09.897Z,13.70
2023-04-16T17:06:36.632Z,13.20
2023-04-16T17:09:03.306Z,13.40
2023-04-16T17:11:29.923Z,13.60
2023-04-16T17:13:56.594Z,13.60
2023-04-16T17:16:23.178Z,13.80
2023-04-16T17:18:49.771Z,13.90
2023-04-16T17:21:16.861Z,14.10
2023-04-16T17:23:43.568Z,14.10
2023-04-16T17:26:10.216Z,14.10
2023-04-16T17:28:37.011Z,14.10
2023-04-16T17:31:03.794Z,14.20
2023-04-16T17:33:30.522Z,14.30
2023-04-16T17:35:57.123Z,14.40
2023-04-16T17:38:23.673Z,14.30
2023-04-16T17:40:50.260Z,14.20
2023-04-16T17:43:16.883Z,14.00
2023-04-16T17:45:43.511Z,13.90
2023-04-16T17:48:10.198Z,13.80
2023-04-16T17:50:39.431Z,13.80
2023-04-16T17:53:06.240Z,13.80
2023-04-16T17:55:32.835Z,13.90
2023-04-16T17:57:59.435Z,13.80
2023-04-16T18:00:26.012Z,13.80
2023-04-16T18:02:52.797Z,13.70
2023-04-16T18:05:19.496Z,13.70
2023-04-16T18:07:46.058Z,12.70
2023-04-16T18:10:12.625Z,12.10
2023-04-16T18:12:39.233Z,11.90
2023-04-16T18:15:05.803Z,12.30
2023-04-16T18:17:32.434Z,12.70
2023-04-16T18:19:59.170Z,12.80
2023-04-16T18:22:27.475Z,12.90
2023-04-16T18:24:54.567Z,12.90
2023-04-16T18:27:21.154Z,12.80
2023-04-16T18:29:49.423Z,12.80
2023-04-16T18:32:16.423Z,13.00
2023-04-16T18:34:43.146Z,13.10
2023-04-16T18:37:09.784Z,13.10
2023-04-16T18:39:36.428Z,13.10
2023-04-16T18:42:02.995Z,13.00
2023-04-16T18:44:29.602Z,12.90
2023-04-16T18:46:56.276Z,12.30
2023-04-16T18:49:22.927Z,11.80
2023-04-16T18:51:49.490Z,12.10
2023-04-16T18:54:16.088Z,12.40
2023-04-16T18:56:42.879Z,12.60
2023-04-16T18:59:09.784Z,12.70
2023-04-16T19:01:37.585Z,12.70
2023-04-16T19:04:04.370Z,12.40
2023-04-16T19:06:30.970Z,12.20
2023-04-16T19:08:57.671Z,12.00
2023-04-16T19:11:24.293Z,12.40
2023-04-16T19:13:50.867Z,12.40
2023-04-16T19:16:17.676Z,11.80
2023-04-16T19:18:44.298Z,11.80
2023-04-16T19:21:11.069Z,12.20
2023-04-16T19:23:37.724Z,12.40
2023-04-16T19:26:04.383Z,12.60
2023-04-16T19:28:30.946Z,12.60
2023-04-16T19:30:57.628Z,12.60
2023-04-16T19:33:24.262Z,12.50
2023-04-16T19:35:50.821Z,12.50
2023-04-16T19:38:17.440Z,12.10
2023-04-16T19:40:44.071Z,11.70
2023-04-16T19:43:10.654Z,12.00
2023-04-16T19:45:37.405Z,12.00
2023-04-16T19:48:04.021Z,11.80
2023-04-16T19:50:30.632Z,11.70
2023-04-16T19:52:57.203Z,11.80
2023-04-16T19:55:23.810Z,11.90
2023-04-16T19:57:50.400Z,11.70
2023-04-16T20:00:17.021Z,11.70
2023-04-16T20:02:43.728Z,11.70
2023-04-16T20:05:10.373Z,11.70
2023-04-16T20:07:36.936Z,11.70
2023-04-16T20:10:03.567Z,11.90
2023-04-16T20:12:30.131Z,12.00
2023-04-16T20:14:56.717Z,12.20
2023-04-16T20:17:23.448Z,12.30
2023-04-16T20:19:50.362Z,11.90
2023-04-16T20:22:16.948Z,11.40
2023-04-16T20:24:44.492Z,10.90
2023-04-16T20:27:12.316Z,11.10
2023-04-16T20:29:38.936Z,11.40
2023-04-16T20:32:05.526Z,11.30
2023-04-16T20:34:32.210Z,10.90
2023-04-16T20:36:58.826Z,11.00
2023-04-16T20:39:25.390Z,11.00
2023-04-16T20:41:51.995Z,10.90
2023-04-16T20:44:18.586Z,11.10
2023-04-16T20:46:45.242Z,11.20
2023-04-16T20:49:12.059Z,11.40
2023-04-16T20:51:38.768Z,11.60
2023-04-16T20:54:05.348Z,11.70
2023-04-16T20:56:31.976Z,11.80
2023-04-16T20:58:58.550Z,11.70
2023-04-16T21:01:25.300Z,11.50
2023-04-16T21:03:52.078Z,11.60
2023-04-16T21:06:18.739Z,11.30
2023-04-16T21:08:45.339Z,11.30
2023-04-16T21:11:11.925Z,11.60
2023-04-16T21:13:38.499Z,11.40
2023-04-16T21:16:05.223Z,11.40
2023-04-16T21:18:31.873Z,11.30
2023-04-16T21:20:58.495Z,11.20
2023-04-16T21:23:25.089Z,11.30
2023-04-16T21:25:51.686Z,11.20
2023-04-16T21:28:18.242Z,11.20
2023-04-16T21:30:44.829Z,11.30
2023-04-16T21:33:11.432Z,11.40
2023-04-16T21:35:37.991Z,11.20
2023-04-16T21:38:04.628Z,11.30
2023-04-16T21:40:31.247Z,11.50
2023-04-16T21:42:57.822Z,11.20
2023-04-16T21:45:24.452Z,11.30
2023-04-16T21:47:51.044Z,11.30
2023-04-16T21:50:17.632Z,11.30
2023-04-16T21:52:44.270Z,11.20
2023-04-16T21:55:10.859Z,11.30
2023-04-16T21:57:40.041Z,11.40
2023-04-16T22:00:06.614Z,11.40
2023-04-16T22:02:33.364Z,11.20
2023-04-16T22:05:00.107Z,11.00
2023-04-16T22:07:26.730Z,10.90
2023-04-16T22:09:53.292Z,10.90
2023-04-16T22:12:19.978Z,11.30
2023-04-16T22:14:59.638Z,11.50
2023-04-16T22:17:28.448Z,11.50
2023-04-16T22:19:55.092Z,11.20
2023-04-16T22:22:21.961Z,11.10
2023-04-16T22:24:48.698Z,10.90
2023-04-16T22:27:15.355Z,10.70
2023-04-16T22:29:41.948Z,10.90
2023-04-16T22:32:08.567Z,11.00
2023-04-16T22:34:35.164Z,11.30
2023-04-16T22:37:01.781Z,11.30
2023-04-16T22:39:28.358Z,11.40
2023-04-16T22:41:54.952Z,11.10
2023-04-16T22:44:22.045Z,11.40
2023-04-16T22:46:48.656Z,11.20
2023-04-16T22:49:15.222Z,11.10
2023-04-16T22:51:41.934Z,11.20
2023-04-16T22:54:08.528Z,11.30
2023-04-16T22:56:35.191Z,11.50
2023-04-16T22:59:01.814Z,11.50
2023-04-16T23:01:28.500Z,11.30
2023-04-16T23:03:55.366Z,11.30
2023-04-16T23:06:22.024Z,11.60
2023-04-16T23:08:48.661Z,11.90
2023-04-16T23:11:15.350Z,12.10
2023-04-16T23:13:41.969Z,12.20
2023-04-16T23:16:08.674Z,11.70
2023-04-16T23:18:35.282Z,11.80
2023-04-16T23:21:02.087Z,11.70
2023-04-16T23:23:28.661Z,11.70
2023-04-16T23:25:55.270Z,11.90
2023-04-16T23:28:21.854Z,11.70
2023-04-16T23:30:48.453Z,11.70
2023-04-16T23:33:15.127Z,11.50
2023-04-16T23:35:41.767Z,11.70
2023-04-16T23:38:08.339Z,11.70
2023-04-16T23:40:34.922Z,11.80
2023-04-16T23:43:01.503Z,12.00
2023-04-16T23:45:28.172Z,12.00
2023-04-16T23:47:54.822Z,11.80
2023-04-16T23:50:21.603Z,11.80
2023-04-16T23:52:48.200Z,11.70
2023-04-16T23:55:14.972Z,11.40
2023-04-16T23:57:41.589Z,11.50
